createdAt,value
2018-12-27T00:01:22.021Z,35.77
2018-12-27T00:04:10.922Z,33.33
2018-12-27T00:06:40.837Z,37.23
2018-12-27T00:09:10.799Z,43.60
2018-12-27T00:11:40.710Z,37.00
2018-12-27T00:14:10.647Z,36.10
2018-12-27T00:16:40.551Z,30.60
2018-12-27T00:19:10.591Z,29.63
2018-12-27T00:24:43.463Z,33.73
2018-12-27T00:27:14.224Z,27.17
2018-12-27T00:29:44.137Z,30.15
2018-12-27T00:32:14.438Z,24.90
2018-12-27T00:34:44.924Z,30.40
2018-12-27T00:37:15.161Z,28.10
2018-12-27T00:39:45.352Z,32.25
2018-12-27T00:42:15.542Z,41.60
2018-12-27T00:44:45.713Z,35.77
2018-12-27T00:47:15.877Z,39.23
2018-12-27T00:49:46.061Z,32.43
2018-12-27T00:52:17.954Z,35.50
2018-12-27T00:54:48.235Z,29.80
2018-12-27T00:57:18.436Z,31.50
2018-12-27T00:59:48.667Z,35.80
2018-12-27T01:02:18.844Z,40.80
2018-12-27T01:04:49.031Z,31.80
2018-12-27T01:07:19.187Z,35.77
2018-12-27T01:09:49.365Z,30.00
2018-12-27T01:12:19.541Z,32.00
2018-12-27T01:14:49.745Z,26.20
2018-12-27T01:17:19.939Z,29.80
2018-12-27T01:23:03.739Z,33.90
2018-12-27T01:25:33.959Z,31.80
2018-12-27T01:28:16.238Z,29.20
2018-12-27T01:30:46.446Z,35.23
2018-12-27T01:33:18.839Z,29.97
2018-12-27T01:36:07.669Z,34.43
2018-12-27T01:38:37.871Z,34.60
2018-12-27T01:41:08.050Z,26.57
2018-12-27T01:43:57.285Z,30.07
2018-12-27T01:46:27.461Z,23.52
2018-12-27T01:48:57.696Z,31.43
2018-12-27T01:51:27.891Z,33.17
2018-12-27T01:53:58.104Z,24.60
2018-12-27T01:56:28.295Z,24.70
2018-12-27T01:58:58.486Z,23.23
2018-12-27T02:01:28.655Z,26.97
2018-12-27T02:03:58.863Z,27.50
2018-12-27T02:06:29.024Z,28.32
2018-12-27T02:08:59.219Z,21.90
2018-12-27T02:11:29.371Z,29.65
2018-12-27T02:13:59.587Z,28.23
2018-12-27T02:16:29.738Z,24.00
2018-12-27T02:18:59.988Z,30.90
2018-12-27T02:21:30.124Z,28.35
2018-12-27T02:24:00.290Z,25.60
2018-12-27T02:26:36.698Z,25.17
2018-12-27T02:29:08.502Z,28.53
2018-12-27T02:31:38.682Z,24.17
2018-12-27T02:34:10.502Z,23.67
2018-12-27T02:36:40.683Z,20.17
2018-12-27T02:39:11.003Z,21.53
2018-12-27T02:41:41.199Z,22.40
2018-12-27T02:44:11.392Z,17.43
2018-12-27T02:46:41.570Z,22.47
2018-12-27T02:49:11.728Z,25.17
2018-12-27T02:51:41.907Z,26.40
2018-12-27T02:54:12.106Z,23.07
2018-12-27T02:56:42.291Z,19.50
2018-12-27T02:59:31.669Z,20.63
2018-12-27T03:02:20.968Z,25.63
2018-12-27T03:04:51.142Z,20.47
2018-12-27T03:07:21.398Z,19.10
2018-12-27T03:09:51.579Z,23.50
2018-12-27T03:12:21.765Z,20.62
2018-12-27T03:14:51.992Z,19.63
2018-12-27T03:17:22.187Z,21.80
2018-12-27T03:19:52.443Z,21.30
2018-12-27T03:22:22.661Z,28.95
2018-12-27T03:24:52.848Z,22.73
2018-12-27T03:27:30.039Z,21.80
2018-12-27T03:30:00.381Z,21.10
2018-12-27T03:32:30.600Z,22.62
2018-12-27T03:35:00.814Z,19.00
2018-12-27T03:37:31.097Z,17.77
2018-12-27T03:42:55.659Z,21.23
2018-12-27T03:45:25.895Z,23.52
2018-12-27T03:47:56.056Z,24.63
2018-12-27T03:50:37.939Z,20.80
2018-12-27T03:53:08.215Z,18.40
2018-12-27T03:55:38.455Z,24.67
2018-12-27T03:58:08.794Z,25.95
2018-12-27T04:00:39.007Z,21.13
2018-12-27T04:03:28.328Z,16.80
2018-12-27T04:05:58.517Z,18.50
2018-12-27T04:08:28.679Z,21.23
2018-12-27T04:10:58.869Z,18.70
2018-12-27T04:13:29.100Z,14.90
2018-12-27T04:15:59.161Z,14.60
2018-12-27T04:18:48.042Z,15.93
2018-12-27T04:21:18.074Z,16.50
2018-12-27T04:23:49.851Z,13.97
2018-12-27T04:26:19.852Z,19.05
2018-12-27T04:29:08.738Z,11.53
2018-12-27T04:31:39.063Z,14.20
2018-12-27T04:34:28.390Z,10.57
2018-12-27T04:40:00.011Z,11.85
2018-12-27T04:43:09.588Z,12.30
2018-12-27T04:53:44.868Z,11.38
2018-12-27T04:56:33.843Z,13.80
2018-12-27T05:02:04.005Z,9.40
2018-12-27T05:04:33.975Z,10.60
2018-12-27T05:07:15.793Z,9.70
2018-12-27T05:09:45.750Z,12.80
2018-12-27T05:12:15.794Z,12.07
2018-12-27T05:17:48.608Z,13.70
2018-12-27T05:20:20.177Z,15.80
2018-12-27T05:22:50.111Z,15.37
2018-12-27T05:25:20.015Z,9.60
2018-12-27T05:28:09.183Z,13.70
2018-12-27T05:30:39.138Z,12.40
2018-12-27T05:33:09.075Z,12.50
2018-12-27T05:35:39.006Z,12.30
2018-12-27T05:38:08.985Z,11.87
2018-12-27T05:40:58.108Z,15.40
2018-12-27T05:43:28.047Z,16.13
2018-12-27T05:48:57.939Z,8.97
2018-12-27T05:51:27.848Z,11.20
2018-12-27T05:53:57.812Z,13.23
2018-12-27T05:56:39.565Z,9.83
2018-12-27T06:02:12.159Z,14.33
2018-12-27T06:04:42.090Z,14.60
2018-12-27T06:07:30.930Z,11.47
2018-12-27T06:10:00.854Z,10.70
2018-12-27T06:12:50.044Z,10.07
2018-12-27T06:15:19.961Z,13.87
2018-12-27T06:17:49.875Z,18.33
2018-12-27T06:20:19.952Z,15.47
2018-12-27T06:22:49.907Z,13.83
2018-12-27T06:25:19.832Z,12.13
2018-12-27T06:28:08.734Z,14.25
2018-12-27T06:30:38.787Z,13.33
2018-12-27T06:33:27.641Z,16.13
2018-12-27T06:35:57.641Z,10.08
2018-12-27T06:38:46.486Z,13.80
2018-12-27T06:41:16.425Z,14.63
2018-12-27T06:43:46.379Z,12.03
2018-12-27T06:46:16.325Z,12.33
2018-12-27T06:48:46.246Z,15.63
2018-12-27T06:51:16.204Z,17.87
2018-12-27T06:53:46.143Z,16.15
2018-12-27T06:56:16.182Z,16.57
2018-12-27T06:58:46.236Z,14.27
2018-12-27T07:01:16.182Z,13.87
2018-12-27T07:04:05.334Z,14.53
2018-12-27T07:09:49.225Z,11.13
2018-12-27T07:12:19.214Z,14.67
2018-12-27T07:15:01.557Z,11.12
2018-12-27T07:17:32.614Z,13.00
2018-12-27T07:20:03.336Z,16.37
2018-12-27T07:22:33.414Z,16.77
2018-12-27T07:25:05.659Z,20.83
2018-12-27T07:27:35.697Z,12.07
2018-12-27T07:30:06.522Z,20.20
2018-12-27T07:32:38.119Z,12.10
2018-12-27T07:35:08.058Z,16.43
2018-12-27T07:37:56.936Z,17.70
2018-12-27T07:40:26.856Z,19.40
2018-12-27T07:42:56.824Z,15.27
2018-12-27T07:48:15.729Z,14.10
2018-12-27T07:50:45.672Z,14.57
2018-12-27T07:53:15.713Z,14.80
2018-12-27T07:56:05.001Z,12.93
2018-12-27T07:58:34.889Z,15.67
2018-12-27T08:01:04.837Z,21.37
2018-12-27T08:03:34.877Z,15.60
2018-12-27T08:06:23.954Z,13.17
2018-12-27T08:08:53.910Z,15.70
2018-12-27T08:11:23.852Z,18.00
2018-12-27T08:13:53.888Z,14.70
2018-12-27T08:16:24.106Z,15.83
2018-12-27T08:18:54.070Z,15.87
2018-12-27T08:24:27.268Z,19.53
2018-12-27T08:26:57.173Z,20.23
2018-12-27T08:29:27.186Z,13.00
2018-12-27T08:31:57.100Z,16.63
2018-12-27T08:34:27.167Z,22.40
2018-12-27T08:36:57.080Z,17.87
2018-12-27T08:39:27.107Z,17.03
2018-12-27T08:41:57.047Z,15.43
2018-12-27T08:44:27.013Z,15.43
2018-12-27T08:46:56.926Z,20.30
2018-12-27T08:49:45.815Z,18.00
2018-12-27T08:52:15.735Z,15.48
2018-12-27T08:54:45.698Z,15.80
2018-12-27T08:57:15.617Z,13.72
2018-12-27T08:59:45.713Z,13.38
2018-12-27T09:02:15.624Z,20.20
2018-12-27T09:05:05.305Z,16.40
2018-12-27T09:07:35.350Z,15.97
2018-12-27T09:10:17.724Z,19.83
2018-12-27T09:12:47.664Z,13.10
2018-12-27T09:15:17.681Z,13.83
2018-12-27T09:17:49.417Z,13.33
2018-12-27T09:20:38.543Z,15.83
2018-12-27T09:23:08.455Z,13.90
2018-12-27T09:25:38.413Z,12.43
2018-12-27T09:28:08.336Z,15.23
2018-12-27T09:30:38.297Z,11.63
2018-12-27T09:33:08.335Z,11.73
2018-12-27T09:35:38.271Z,12.00
2018-12-27T09:38:08.249Z,15.00
2018-12-27T09:40:57.117Z,13.13
2018-12-27T09:43:27.197Z,11.67
2018-12-27T09:46:16.101Z,11.33
2018-12-27T09:48:46.129Z,14.03
2018-12-27T09:51:16.111Z,9.03
2018-12-27T09:53:46.124Z,15.40
2018-12-27T09:56:16.170Z,18.50
2018-12-27T09:58:46.106Z,14.10
2018-12-27T10:01:16.222Z,13.30
2018-12-27T10:03:46.206Z,9.77
2018-12-27T10:06:17.815Z,9.55
2018-12-27T10:08:47.749Z,12.30
2018-12-27T10:11:17.707Z,12.60
2018-12-27T10:13:47.832Z,9.33
2018-12-27T10:16:17.838Z,13.60
2018-12-27T10:18:47.819Z,9.47
2018-12-27T10:21:23.832Z,15.10
2018-12-27T10:23:53.768Z,13.07
2018-12-27T10:26:23.881Z,10.43
2018-12-27T10:31:49.778Z,11.63
2018-12-27T10:34:20.006Z,8.53
2018-12-27T10:39:45.721Z,9.00
2018-12-27T10:42:15.712Z,11.20
2018-12-27T10:44:45.679Z,9.83
2018-12-27T10:47:15.663Z,10.13
2018-12-27T10:49:45.660Z,15.70
2018-12-27T10:52:15.711Z,9.60
2018-12-27T10:54:51.502Z,10.23
2018-12-27T10:57:21.479Z,12.40
2018-12-27T10:59:51.546Z,13.80
2018-12-27T11:02:21.488Z,11.23
2018-12-27T11:04:51.552Z,13.40
2018-12-27T11:07:21.568Z,8.33
2018-12-27T11:09:51.628Z,14.53
2018-12-27T11:12:21.595Z,9.60
2018-12-27T11:15:10.621Z,12.90
2018-12-27T11:17:40.529Z,11.33
2018-12-27T11:20:16.759Z,17.20
2018-12-27T11:22:46.884Z,10.03
2018-12-27T11:25:16.818Z,14.37
2018-12-27T11:27:58.776Z,12.80
2018-12-27T11:30:37.487Z,13.47
2018-12-27T11:33:07.412Z,13.40
2018-12-27T11:35:37.492Z,10.30
2018-12-27T11:38:07.464Z,8.43
2018-12-27T11:40:37.414Z,10.10
2018-12-27T11:43:07.346Z,7.50
2018-12-27T11:45:37.335Z,10.93
2018-12-27T11:48:07.272Z,16.60
2018-12-27T11:50:37.286Z,21.20
2018-12-27T11:53:07.242Z,18.80
2018-12-27T11:55:37.178Z,12.10
2018-12-27T11:58:07.098Z,14.07
2018-12-27T12:00:37.087Z,8.03
2018-12-27T12:03:07.056Z,13.90
2018-12-27T12:05:37.070Z,10.80
2018-12-27T12:08:07.104Z,14.83
2018-12-27T12:10:37.137Z,12.00
2018-12-27T12:15:56.021Z,15.43
2018-12-27T12:18:26.039Z,21.83
2018-12-27T12:20:56.017Z,14.10
2018-12-27T12:23:26.024Z,16.47
2018-12-27T12:25:56.081Z,17.57
2018-12-27T12:28:27.752Z,11.53
2018-12-27T12:30:57.707Z,11.70
2018-12-27T12:33:27.605Z,8.85
2018-12-27T12:35:57.626Z,9.00
2018-12-27T12:38:27.616Z,7.77
2018-12-27T12:40:57.568Z,6.87
2018-12-27T12:46:35.581Z,6.73
2018-12-27T12:49:05.643Z,11.13
2018-12-27T12:51:37.240Z,8.77
2018-12-27T12:54:07.179Z,8.43
2018-12-27T12:56:56.060Z,9.37
2018-12-27T13:02:07.092Z,13.60
2018-12-27T13:04:56.366Z,21.67
2018-12-27T13:07:26.406Z,19.82
2018-12-27T13:09:56.369Z,23.10
2018-12-27T13:12:26.327Z,16.90
2018-12-27T13:14:56.359Z,16.30
2018-12-27T13:17:26.262Z,15.70
2018-12-27T13:19:56.231Z,10.07
2018-12-27T13:22:26.156Z,16.10
2018-12-27T13:25:15.246Z,9.20
2018-12-27T13:30:59.128Z,13.70
2018-12-27T13:33:29.157Z,11.90
2018-12-27T13:35:59.064Z,20.10
2018-12-27T13:41:24.070Z,11.57
2018-12-27T13:43:54.107Z,10.17
2018-12-27T13:46:24.024Z,10.25
2018-12-27T13:48:53.978Z,8.70
2018-12-27T13:51:23.946Z,10.03
2018-12-27T13:53:53.937Z,9.85
2018-12-27T13:59:26.780Z,13.60
2018-12-27T14:04:37.781Z,8.20
2018-12-27T14:07:07.724Z,11.77
2018-12-27T14:09:37.696Z,9.00
2018-12-27T14:12:07.635Z,15.70
2018-12-27T14:14:37.696Z,12.20
2018-12-27T14:17:07.718Z,13.70
2018-12-27T14:19:37.715Z,9.80
2018-12-27T14:22:07.718Z,11.63
2018-12-27T14:24:37.718Z,9.50
2018-12-27T14:27:07.691Z,8.90
2018-12-27T14:29:37.706Z,11.23
2018-12-27T14:32:07.638Z,14.93
2018-12-27T14:34:37.593Z,13.43
2018-12-27T14:37:07.490Z,10.73
2018-12-27T14:39:37.513Z,8.17
2018-12-27T14:42:08.248Z,12.63
2018-12-27T14:44:38.219Z,7.35
2018-12-27T14:50:11.502Z,10.20
2018-12-27T14:52:41.468Z,9.13
2018-12-27T14:55:11.447Z,9.93
2018-12-27T14:57:41.393Z,12.23
2018-12-27T15:00:12.204Z,14.40
2018-12-27T15:02:42.122Z,9.03
2018-12-27T15:05:12.186Z,14.50
2018-12-27T15:07:42.122Z,11.57
2018-12-27T15:10:12.065Z,10.20
2018-12-27T15:12:42.126Z,11.30
2018-12-27T15:15:12.223Z,7.57
2018-12-27T15:17:42.171Z,13.63
2018-12-27T15:20:12.886Z,7.23
2018-12-27T15:22:42.810Z,13.80
2018-12-27T15:25:12.771Z,18.30
2018-12-27T15:27:42.704Z,11.00
2018-12-27T15:30:12.745Z,8.77
2018-12-27T15:32:42.660Z,8.70
2018-12-27T15:35:12.727Z,10.83
2018-12-27T15:37:42.699Z,15.40
2018-12-27T15:40:12.679Z,13.90
2018-12-27T15:42:42.708Z,13.20
2018-12-27T15:45:12.712Z,12.07
2018-12-27T15:47:42.746Z,10.90
2018-12-27T15:50:12.730Z,11.10
2018-12-27T15:52:42.604Z,10.70
2018-12-27T15:55:12.572Z,12.33
2018-12-27T15:57:42.503Z,11.00
2018-12-27T16:00:12.573Z,14.73
2018-12-27T16:02:42.539Z,10.83
2018-12-27T16:05:12.983Z,11.50
2018-12-27T16:08:03.538Z,11.10
2018-12-27T16:10:35.257Z,15.10
2018-12-27T16:13:29.966Z,25.13
2018-12-27T16:19:13.458Z,18.23
2018-12-27T16:21:43.377Z,24.00
2018-12-27T16:24:13.376Z,18.17
2018-12-27T16:26:43.307Z,21.90
2018-12-27T16:29:13.251Z,23.83
2018-12-27T16:31:43.253Z,17.07
2018-12-27T16:34:13.333Z,18.93
2018-12-27T16:36:43.313Z,21.53
2018-12-27T16:39:13.268Z,14.27
2018-12-27T16:41:43.235Z,19.10
2018-12-27T16:44:13.494Z,13.83
2018-12-27T16:46:43.957Z,19.13
2018-12-27T16:49:14.328Z,10.73
2018-12-27T16:51:44.538Z,10.53
2018-12-27T16:54:14.681Z,13.63
2018-12-27T16:56:44.870Z,12.67
2018-12-27T16:59:15.196Z,14.95
2018-12-27T17:01:45.142Z,13.70
2018-12-27T17:04:15.435Z,12.58
2018-12-27T17:06:45.343Z,9.43
2018-12-27T17:09:15.563Z,8.15
2018-12-27T17:11:45.482Z,12.90
2018-12-27T17:14:15.445Z,11.93
2018-12-27T17:17:04.525Z,11.47
2018-12-27T17:22:29.282Z,11.13
2018-12-27T17:24:59.447Z,13.62
2018-12-27T17:30:31.735Z,11.90
2018-12-27T17:33:01.718Z,7.97
2018-12-27T17:35:31.655Z,11.37
2018-12-27T17:38:01.555Z,10.73
2018-12-27T17:40:32.190Z,6.40
2018-12-27T17:46:04.940Z,22.03
2018-12-27T17:48:35.043Z,13.73
2018-12-27T17:53:59.084Z,7.93
2018-12-27T17:56:29.005Z,13.43
2018-12-27T17:58:58.933Z,8.37
2018-12-27T18:01:28.855Z,9.55
2018-12-27T18:04:04.555Z,12.93
2018-12-27T18:06:34.502Z,12.40
2018-12-27T18:14:58.416Z,12.17
2018-12-27T18:17:28.321Z,13.30
2018-12-27T18:20:17.343Z,7.58
2018-12-27T18:22:48.883Z,10.73
2018-12-27T18:25:18.823Z,10.70
2018-12-27T18:27:48.758Z,12.43
2018-12-27T18:30:18.687Z,10.15
2018-12-27T18:33:07.871Z,12.00
2018-12-27T18:38:32.756Z,9.20
2018-12-27T18:41:02.766Z,11.43
2018-12-27T18:43:32.783Z,8.75
2018-12-27T18:46:21.640Z,8.60
2018-12-27T18:48:51.641Z,14.50
2018-12-27T18:51:40.743Z,10.15
2018-12-27T18:54:10.683Z,6.87
2018-12-27T18:56:59.804Z,11.10
2018-12-27T18:59:35.293Z,10.00
2018-12-27T19:04:47.895Z,9.38
2018-12-27T19:10:07.289Z,8.70
2018-12-27T19:13:15.441Z,11.20
2018-12-27T19:16:04.713Z,10.87
2018-12-27T19:18:55.225Z,13.60
2018-12-27T19:21:49.429Z,10.40
2018-12-27T19:27:38.986Z,11.60
2018-12-27T19:33:10.200Z,12.33
2018-12-27T19:35:40.155Z,11.30
2018-12-27T19:38:10.064Z,7.07
2018-12-27T19:40:40.039Z,7.57
2018-12-27T19:43:09.909Z,9.30
2018-12-27T19:45:40.020Z,11.07
2018-12-27T19:48:09.988Z,11.17
2018-12-27T19:50:41.045Z,9.10
2018-12-27T19:53:10.963Z,11.50
2018-12-27T19:55:41.118Z,8.40
2018-12-27T19:58:11.087Z,11.07
2018-12-27T20:00:41.174Z,8.13
2018-12-27T20:03:11.132Z,13.23
2018-12-27T20:05:41.172Z,11.03
2018-12-27T20:08:49.240Z,10.15
2018-12-27T20:11:20.065Z,8.23
2018-12-27T20:13:50.416Z,12.30
2018-12-27T20:16:20.436Z,14.37
2018-12-27T20:18:50.347Z,11.60
2018-12-27T20:21:20.393Z,9.13
2018-12-27T20:24:09.731Z,11.40
2018-12-27T20:26:39.758Z,12.60
2018-12-27T20:29:28.759Z,10.07
2018-12-27T20:34:40.215Z,15.87
2018-12-27T20:37:29.484Z,10.80
2018-12-27T20:39:59.396Z,16.57
2018-12-27T20:42:29.392Z,17.23
2018-12-27T20:44:59.357Z,12.07
2018-12-27T20:47:29.375Z,12.07
2018-12-27T20:49:59.385Z,10.40
2018-12-27T20:53:07.421Z,15.60
2018-12-27T20:55:37.350Z,14.10
2018-12-27T20:58:07.346Z,9.33
2018-12-27T21:00:37.368Z,15.35
2018-12-27T21:03:07.561Z,13.00
2018-12-27T21:05:37.517Z,14.80
2018-12-27T21:08:13.916Z,10.48
2018-12-27T21:11:03.408Z,11.83
2018-12-27T21:13:33.352Z,9.57
2018-12-27T21:19:05.717Z,10.40
2018-12-27T21:32:20.623Z,15.20
2018-12-27T21:34:50.521Z,15.13
2018-12-27T21:37:39.624Z,10.60
2018-12-27T21:40:09.505Z,15.67
2018-12-27T21:42:58.666Z,12.90
2018-12-27T21:45:28.570Z,13.50
2018-12-27T21:48:04.675Z,15.10
2018-12-27T21:50:34.561Z,11.90
2018-12-27T21:53:04.523Z,11.30
2018-12-27T21:55:34.421Z,16.37
2018-12-27T21:58:04.600Z,16.32
2018-12-27T22:00:34.548Z,13.10
2018-12-27T22:03:04.673Z,14.00
2018-12-27T22:05:34.622Z,15.53
2018-12-27T22:08:28.481Z,13.93
2018-12-27T22:11:14.434Z,20.50
2018-12-27T22:13:44.516Z,16.23
2018-12-27T22:22:18.948Z,12.43
2018-12-27T22:25:08.043Z,12.50
2018-12-27T22:27:38.136Z,16.90
2018-12-27T22:30:08.404Z,17.92
2018-12-27T22:32:38.390Z,18.97
2018-12-27T22:35:08.412Z,10.20
2018-12-27T22:37:38.306Z,15.37
2018-12-27T22:40:08.255Z,13.77
2018-12-27T22:42:38.230Z,19.20
2018-12-27T22:45:08.342Z,19.00
2018-12-27T22:47:38.374Z,18.17
2018-12-27T22:50:08.374Z,12.40
2018-12-27T22:52:57.462Z,14.80
2018-12-27T22:55:32.855Z,16.87
2018-12-27T22:58:21.777Z,14.03
2018-12-27T23:04:01.495Z,14.47
2018-12-27T23:06:31.425Z,18.90
2018-12-27T23:09:01.586Z,14.40
2018-12-27T23:11:33.135Z,12.63
2018-12-27T23:14:03.179Z,15.72
2018-12-27T23:16:33.110Z,14.65
2018-12-27T23:19:04.776Z,20.15
2018-12-27T23:21:34.672Z,17.67
2018-12-27T23:24:23.565Z,17.10
2018-12-27T23:32:48.552Z,14.70
2018-12-27T23:35:18.509Z,17.03
2018-12-27T23:37:48.497Z,13.87
2018-12-27T23:40:18.434Z,15.70
2018-12-27T23:42:48.365Z,18.23
2018-12-27T23:45:18.360Z,16.40
2018-12-27T23:47:48.322Z,18.50
2018-12-27T23:50:18.224Z,14.70
2018-12-27T23:52:49.780Z,16.50
2018-12-27T23:55:25.280Z,18.50
2018-12-27T23:57:55.319Z,17.23
